sensor_id;sensor_type;location;lat;lon;timestamp;pressure;altitude;pressure_sealevel;temperature;humidity
41515;BME280;27247;48.020;16.720;2023-07-20T00:02:03;99228.69;;;21.23;76.95
41515;BME280;27247;48.020;16.720;2023-07-20T00:06:15;99228.75;;;21.28;75.73
41515;BME280;27247;48.020;16.720;2023-07-20T00:10:25;99225.53;;;21.36;75.15
41515;BME280;27247;48.020;16.720;2023-07-20T00:14:36;99229.69;;;21.49;74.53
41515;BME280;27247;48.020;16.720;2023-07-20T00:18:46;99227.06;;;21.59;74.12
41515;BME280;27247;48.020;16.720;2023-07-20T00:22:57;99217.59;;;21.66;74.02
41515;BME280;27247;48.020;16.720;2023-07-20T00:27:07;99225.72;;;21.61;74.74
41515;BME280;27247;48.020;16.720;2023-07-20T00:31:18;99241.38;;;21.44;76.17
41515;BME280;27247;48.020;16.720;2023-07-20T00:35:28;99246.22;;;21.37;77.44
41515;BME280;27247;48.020;16.720;2023-07-20T00:39:39;99259.13;;;20.93;79.37
41515;BME280;27247;48.020;16.720;2023-07-20T00:43:49;99254.75;;;20.43;81.62
41515;BME280;27247;48.020;16.720;2023-07-20T00:48:04;99252.38;;;20.47;81.81
41515;BME280;27247;48.020;16.720;2023-07-20T00:52:18;99253.91;;;20.64;81.24
41515;BME280;27247;48.020;16.720;2023-07-20T00:56:30;99266.25;;;20.50;81.65
41515;BME280;27247;48.020;16.720;2023-07-20T01:00:41;99254.63;;;20.55;79.97
41515;BME280;27247;48.020;16.720;2023-07-20T01:04:51;99261.56;;;20.67;79.71
41515;BME280;27247;48.020;16.720;2023-07-20T01:09:13;99259.59;;;20.63;80.11
41515;BME280;27247;48.020;16.720;2023-07-20T01:13:25;99260.94;;;20.60;80.28
41515;BME280;27247;48.020;16.720;2023-07-20T01:17:36;99258.41;;;20.10;81.43
41515;BME280;27247;48.020;16.720;2023-07-20T01:22:03;99249.69;;;20.30;81.70
41515;BME280;27247;48.020;16.720;2023-07-20T01:35:11;99220.41;;;20.54;79.88
41515;BME280;27247;48.020;16.720;2023-07-20T01:39:24;99208.22;;;20.56;80.51
41515;BME280;27247;48.020;16.720;2023-07-20T01:43:35;99199.47;;;20.49;80.56
41515;BME280;27247;48.020;16.720;2023-07-20T01:47:45;99213.28;;;20.48;80.62
41515;BME280;27247;48.020;16.720;2023-07-20T01:51:56;99218.09;;;20.40;80.80
41515;BME280;27247;48.020;16.720;2023-07-20T01:56:06;99226.03;;;20.47;80.53
41515;BME280;27247;48.020;16.720;2023-07-20T02:00:17;99229.44;;;20.59;79.87
41515;BME280;27247;48.020;16.720;2023-07-20T02:04:29;99240.59;;;20.63;80.12
41515;BME280;27247;48.020;16.720;2023-07-20T02:08:39;99240.03;;;20.61;80.23
41515;BME280;27247;48.020;16.720;2023-07-20T02:12:49;99253.03;;;20.59;80.63
41515;BME280;27247;48.020;16.720;2023-07-20T02:17:00;99257.53;;;20.48;80.34
41515;BME280;27247;48.020;16.720;2023-07-20T02:21:11;99264.81;;;20.43;80.74
41515;BME280;27247;48.020;16.720;2023-07-20T02:25:21;99264.97;;;20.36;81.85
41515;BME280;27247;48.020;16.720;2023-07-20T02:29:32;99263.91;;;20.15;81.98
41515;BME280;27247;48.020;16.720;2023-07-20T02:33:42;99271.09;;;20.26;82.68
41515;BME280;27247;48.020;16.720;2023-07-20T02:37:52;99275.31;;;20.17;82.97
41515;BME280;27247;48.020;16.720;2023-07-20T02:42:04;99283.72;;;20.16;82.83
41515;BME280;27247;48.020;16.720;2023-07-20T02:46:14;99286.69;;;20.14;82.32
41515;BME280;27247;48.020;16.720;2023-07-20T02:50:25;99293.50;;;20.17;82.43
41515;BME280;27247;48.020;16.720;2023-07-20T02:54:35;99299.59;;;20.07;82.95
41515;BME280;27247;48.020;16.720;2023-07-20T02:58:45;99292.47;;;20.01;82.08
41515;BME280;27247;48.020;16.720;2023-07-20T03:02:56;99301.91;;;19.98;82.53
41515;BME280;27247;48.020;16.720;2023-07-20T03:07:06;99293.97;;;19.75;83.54
41515;BME280;27247;48.020;16.720;2023-07-20T03:11:19;99303.59;;;19.66;84.13
41515;BME280;27247;48.020;16.720;2023-07-20T03:15:29;99320.84;;;19.60;84.43
41515;BME280;27247;48.020;16.720;2023-07-20T03:19:41;99322.81;;;19.64;84.62
41515;BME280;27247;48.020;16.720;2023-07-20T03:23:51;99333.41;;;19.66;84.63
41515;BME280;27247;48.020;16.720;2023-07-20T03:28:02;99337.34;;;19.75;84.17
41515;BME280;27247;48.020;16.720;2023-07-20T03:32:12;99350.84;;;19.87;83.57
41515;BME280;27247;48.020;16.720;2023-07-20T03:36:22;99348.38;;;19.85;83.79
41515;BME280;27247;48.020;16.720;2023-07-20T03:40:33;99360.22;;;19.79;83.63
41515;BME280;27247;48.020;16.720;2023-07-20T03:44:43;99367.28;;;19.80;84.50
41515;BME280;27247;48.020;16.720;2023-07-20T03:48:53;99368.00;;;19.75;84.90
41515;BME280;27247;48.020;16.720;2023-07-20T03:53:03;99359.72;;;19.82;84.20
41515;BME280;27247;48.020;16.720;2023-07-20T03:57:14;99363.91;;;19.90;83.90
41515;BME280;27247;48.020;16.720;2023-07-20T04:01:24;99370.38;;;20.05;83.52
41515;BME280;27247;48.020;16.720;2023-07-20T04:05:35;99377.34;;;20.18;83.31
41515;BME280;27247;48.020;16.720;2023-07-20T04:09:45;99387.03;;;20.31;82.74
41515;BME280;27247;48.020;16.720;2023-07-20T04:13:55;99382.59;;;20.42;81.90
41515;BME280;27247;48.020;16.720;2023-07-20T04:18:06;99381.84;;;20.46;81.07
41515;BME280;27247;48.020;16.720;2023-07-20T04:22:16;99374.06;;;20.55;80.83
41515;BME280;27247;48.020;16.720;2023-07-20T04:26:27;99381.28;;;20.66;80.87
41515;BME280;27247;48.020;16.720;2023-07-20T04:30:38;99384.88;;;20.71;80.83
41515;BME280;27247;48.020;16.720;2023-07-20T04:34:49;99383.97;;;20.83;80.73
41515;BME280;27247;48.020;16.720;2023-07-20T04:39:00;99390.34;;;20.93;80.66
41515;BME280;27247;48.020;16.720;2023-07-20T04:43:10;99383.81;;;20.94;80.78
41515;BME280;27247;48.020;16.720;2023-07-20T04:47:20;99402.59;;;20.96;79.50
41515;BME280;27247;48.020;16.720;2023-07-20T04:51:31;99401.56;;;21.02;77.35
41515;BME280;27247;48.020;16.720;2023-07-20T04:55:47;99399.97;;;21.28;76.63
41515;BME280;27247;48.020;16.720;2023-07-20T05:00:00;99395.78;;;21.42;76.07
41515;BME280;27247;48.020;16.720;2023-07-20T05:04:10;99406.75;;;21.52;76.18
41515;BME280;27247;48.020;16.720;2023-07-20T05:08:21;99411.97;;;21.59;75.83
41515;BME280;27247;48.020;16.720;2023-07-20T05:12:34;99414.78;;;21.69;75.75
41515;BME280;27247;48.020;16.720;2023-07-20T05:16:44;99419.03;;;21.87;75.42
41515;BME280;27247;48.020;16.720;2023-07-20T05:20:55;99416.16;;;21.98;74.64
41515;BME280;27247;48.020;16.720;2023-07-20T05:25:10;99417.63;;;22.11;73.98
41515;BME280;27247;48.020;16.720;2023-07-20T05:29:21;99418.81;;;22.25;74.34
41515;BME280;27247;48.020;16.720;2023-07-20T05:33:31;99430.28;;;22.33;73.80
41515;BME280;27247;48.020;16.720;2023-07-20T05:37:42;99430.91;;;22.45;73.71
41515;BME280;27247;48.020;16.720;2023-07-20T05:41:52;99424.69;;;22.49;74.09
41515;BME280;27247;48.020;16.720;2023-07-20T05:46:02;99427.13;;;22.51;74.33
41515;BME280;27247;48.020;16.720;2023-07-20T05:50:14;99426.41;;;22.66;74.13
41515;BME280;27247;48.020;16.720;2023-07-20T05:54:24;99430.22;;;22.65;74.60
41515;BME280;27247;48.020;16.720;2023-07-20T05:58:36;99431.34;;;22.74;73.96
41515;BME280;27247;48.020;16.720;2023-07-20T06:02:47;99440.13;;;22.81;74.65
41515;BME280;27247;48.020;16.720;2023-07-20T06:06:58;99440.97;;;22.86;74.35
41515;BME280;27247;48.020;16.720;2023-07-20T06:11:08;99441.03;;;22.91;74.16
41515;BME280;27247;48.020;16.720;2023-07-20T06:19:36;99450.59;;;22.99;73.36
41515;BME280;27247;48.020;16.720;2023-07-20T06:23:46;99439.44;;;23.06;73.68
41515;BME280;27247;48.020;16.720;2023-07-20T06:27:57;99454.72;;;23.12;72.70
41515;BME280;27247;48.020;16.720;2023-07-20T06:32:07;99450.41;;;23.21;72.74
41515;BME280;27247;48.020;16.720;2023-07-20T06:36:18;99452.06;;;23.32;73.25
41515;BME280;27247;48.020;16.720;2023-07-20T06:40:29;99452.63;;;23.34;71.17
41515;BME280;27247;48.020;16.720;2023-07-20T06:44:39;99451.56;;;23.40;71.34
41515;BME280;27247;48.020;16.720;2023-07-20T06:48:49;99451.06;;;23.59;70.74
41515;BME280;27247;48.020;16.720;2023-07-20T06:53:00;99457.09;;;23.76;70.24
41515;BME280;27247;48.020;16.720;2023-07-20T06:57:13;99446.78;;;23.93;71.17
41515;BME280;27247;48.020;16.720;2023-07-20T07:01:23;99452.22;;;24.24;69.49
41515;BME280;27247;48.020;16.720;2023-07-20T07:05:37;99461.75;;;24.57;67.08
41515;BME280;27247;48.020;16.720;2023-07-20T07:09:47;99461.72;;;24.72;65.22
41515;BME280;27247;48.020;16.720;2023-07-20T07:13:58;99458.69;;;24.83;64.42
41515;BME280;27247;48.020;16.720;2023-07-20T07:18:08;99463.56;;;25.07;64.50
41515;BME280;27247;48.020;16.720;2023-07-20T07:22:18;99460.00;;;25.11;64.98
41515;BME280;27247;48.020;16.720;2023-07-20T07:26:29;99458.38;;;24.95;65.39
41515;BME280;27247;48.020;16.720;2023-07-20T07:30:39;99461.13;;;24.90;65.65
41515;BME280;27247;48.020;16.720;2023-07-20T07:34:50;99463.81;;;25.16;66.51
41515;BME280;27247;48.020;16.720;2023-07-20T07:39:00;99452.78;;;25.31;65.34
41515;BME280;27247;48.020;16.720;2023-07-20T07:43:10;99452.28;;;25.24;64.98
41515;BME280;27247;48.020;16.720;2023-07-20T07:47:22;99449.81;;;25.22;65.26
41515;BME280;27247;48.020;16.720;2023-07-20T07:51:32;99452.53;;;25.27;65.92
41515;BME280;27247;48.020;16.720;2023-07-20T07:55:42;99456.59;;;25.35;64.71
41515;BME280;27247;48.020;16.720;2023-07-20T07:59:53;99442.84;;;25.45;63.37
41515;BME280;27247;48.020;16.720;2023-07-20T08:04:03;99445.41;;;25.75;64.31
41515;BME280;27247;48.020;16.720;2023-07-20T08:08:13;99447.41;;;26.04;62.15
41515;BME280;27247;48.020;16.720;2023-07-20T08:12:24;99446.50;;;26.14;61.05
41515;BME280;27247;48.020;16.720;2023-07-20T08:16:34;99444.78;;;26.23;61.58
41515;BME280;27247;48.020;16.720;2023-07-20T08:20:45;99442.06;;;26.52;61.29
41515;BME280;27247;48.020;16.720;2023-07-20T08:24:55;99453.28;;;26.79;59.60
41515;BME280;27247;48.020;16.720;2023-07-20T08:29:06;99455.81;;;26.99;60.40
41515;BME280;27247;48.020;16.720;2023-07-20T08:33:18;99453.00;;;27.28;59.59
41515;BME280;27247;48.020;16.720;2023-07-20T08:37:29;99450.41;;;27.56;58.51
41515;BME280;27247;48.020;16.720;2023-07-20T08:41:43;99453.75;;;27.53;57.94
41515;BME280;27247;48.020;16.720;2023-07-20T08:45:57;99458.19;;;27.49;57.46
41515;BME280;27247;48.020;16.720;2023-07-20T08:50:07;99449.63;;;27.74;56.98
41515;BME280;27247;48.020;16.720;2023-07-20T08:54:18;99455.38;;;27.91;56.25
41515;BME280;27247;48.020;16.720;2023-07-20T08:58:28;99445.94;;;28.16;56.62
41515;BME280;27247;48.020;16.720;2023-07-20T09:02:40;99451.53;;;28.57;57.56
41515;BME280;27247;48.020;16.720;2023-07-20T09:06:52;99453.81;;;28.83;55.55
41515;BME280;27247;48.020;16.720;2023-07-20T09:11:02;99458.97;;;28.57;55.68
41515;BME280;27247;48.020;16.720;2023-07-20T09:15:14;99457.63;;;27.89;56.29
41515;BME280;27247;48.020;16.720;2023-07-20T09:19:24;99463.88;;;27.76;57.60
41515;BME280;27247;48.020;16.720;2023-07-20T09:23:36;99463.94;;;27.71;57.62
41515;BME280;27247;48.020;16.720;2023-07-20T09:27:48;99454.19;;;27.60;56.65
41515;BME280;27247;48.020;16.720;2023-07-20T09:36:10;99460.31;;;27.76;57.16
41515;BME280;27247;48.020;16.720;2023-07-20T09:40:21;99446.59;;;28.08;57.49
41515;BME280;27247;48.020;16.720;2023-07-20T09:44:31;99435.97;;;28.67;56.28
41515;BME280;27247;48.020;16.720;2023-07-20T09:48:51;99440.19;;;28.91;55.64
41515;BME280;27247;48.020;16.720;2023-07-20T09:53:02;99433.22;;;28.80;55.47
41515;BME280;27247;48.020;16.720;2023-07-20T09:57:12;99444.31;;;28.48;56.48
41515;BME280;27247;48.020;16.720;2023-07-20T10:01:26;99450.44;;;28.58;55.70
41515;BME280;27247;48.020;16.720;2023-07-20T10:05:43;99442.16;;;28.58;54.19
41515;BME280;27247;48.020;16.720;2023-07-20T10:09:55;99443.88;;;28.41;55.03
41515;BME280;27247;48.020;16.720;2023-07-20T10:14:07;99449.50;;;28.49;55.27
41515;BME280;27247;48.020;16.720;2023-07-20T10:18:49;99445.63;;;28.64;55.44
41515;BME280;27247;48.020;16.720;2023-07-20T10:23:00;99443.41;;;28.80;55.36
41515;BME280;27247;48.020;16.720;2023-07-20T10:27:11;99440.13;;;28.64;54.78
41515;BME280;27247;48.020;16.720;2023-07-20T10:31:22;99444.97;;;28.07;55.47
41515;BME280;27247;48.020;16.720;2023-07-20T10:35:56;99435.56;;;27.57;56.37
41515;BME280;27247;48.020;16.720;2023-07-20T10:40:33;99441.50;;;27.45;57.76
41515;BME280;27247;48.020;16.720;2023-07-20T10:44:44;99436.47;;;27.52;57.66
41515;BME280;27247;48.020;16.720;2023-07-20T10:49:03;99435.28;;;27.77;57.99
41515;BME280;27247;48.020;16.720;2023-07-20T10:53:16;99433.31;;;28.15;56.74
41515;BME280;27247;48.020;16.720;2023-07-20T10:57:30;99432.72;;;28.65;55.80
41515;BME280;27247;48.020;16.720;2023-07-20T11:01:41;99432.09;;;28.68;55.96
41515;BME280;27247;48.020;16.720;2023-07-20T11:05:53;99435.06;;;28.71;55.66
41515;BME280;27247;48.020;16.720;2023-07-20T11:10:14;99433.66;;;28.87;55.22
41515;BME280;27247;48.020;16.720;2023-07-20T11:14:25;99425.66;;;28.45;55.04
41515;BME280;27247;48.020;16.720;2023-07-20T11:18:36;99423.75;;;28.59;56.22
41515;BME280;27247;48.020;16.720;2023-07-20T11:22:49;99408.88;;;29.15;53.28
41515;BME280;27247;48.020;16.720;2023-07-20T11:27:04;99405.06;;;29.38;51.24
41515;BME280;27247;48.020;16.720;2023-07-20T11:31:15;99403.06;;;29.88;51.79
41515;BME280;27247;48.020;16.720;2023-07-20T11:35:28;99403.47;;;30.18;47.78
41515;BME280;27247;48.020;16.720;2023-07-20T11:39:38;99391.56;;;30.40;48.36
41515;BME280;27247;48.020;16.720;2023-07-20T11:43:49;99391.78;;;30.52;48.83
41515;BME280;27247;48.020;16.720;2023-07-20T11:48:00;99382.88;;;30.55;49.02
41515;BME280;27247;48.020;16.720;2023-07-20T11:52:14;99387.31;;;30.65;47.30
41515;BME280;27247;48.020;16.720;2023-07-20T11:56:25;99381.66;;;30.78;47.28
41515;BME280;27247;48.020;16.720;2023-07-20T12:00:38;99387.22;;;30.87;47.42
41515;BME280;27247;48.020;16.720;2023-07-20T12:04:49;99380.22;;;30.81;46.75
41515;BME280;27247;48.020;16.720;2023-07-20T12:09:00;99374.69;;;30.81;47.46
41515;BME280;27247;48.020;16.720;2023-07-20T12:13:10;99372.03;;;31.16;47.23
41515;BME280;27247;48.020;16.720;2023-07-20T12:17:24;99361.41;;;30.92;45.88
41515;BME280;27247;48.020;16.720;2023-07-20T12:21:35;99357.34;;;30.98;46.16
41515;BME280;27247;48.020;16.720;2023-07-20T12:25:50;99361.44;;;31.09;45.32
41515;BME280;27247;48.020;16.720;2023-07-20T12:30:02;99353.94;;;30.92;46.06
41515;BME280;27247;48.020;16.720;2023-07-20T12:34:14;99350.22;;;30.97;45.51
41515;BME280;27247;48.020;16.720;2023-07-20T12:38:25;99353.47;;;30.50;46.04
41515;BME280;27247;48.020;16.720;2023-07-20T12:42:37;99347.41;;;30.71;46.55
41515;BME280;27247;48.020;16.720;2023-07-20T12:46:48;99350.50;;;30.78;46.38
41515;BME280;27247;48.020;16.720;2023-07-20T12:50:58;99354.47;;;30.55;45.50
41515;BME280;27247;48.020;16.720;2023-07-20T12:55:09;99354.06;;;30.70;46.06
41515;BME280;27247;48.020;16.720;2023-07-20T12:59:20;99350.78;;;30.59;45.65
41515;BME280;27247;48.020;16.720;2023-07-20T13:03:30;99339.69;;;30.50;46.48
41515;BME280;27247;48.020;16.720;2023-07-20T13:07:41;99350.69;;;30.42;45.64
41515;BME280;27247;48.020;16.720;2023-07-20T13:11:51;99344.53;;;30.45;45.47
41515;BME280;27247;48.020;16.720;2023-07-20T13:16:02;99348.59;;;30.16;45.24
41515;BME280;27247;48.020;16.720;2023-07-20T13:20:13;99341.13;;;29.86;45.79
41515;BME280;27247;48.020;16.720;2023-07-20T13:24:24;99343.41;;;30.15;44.74
41515;BME280;27247;48.020;16.720;2023-07-20T13:28:34;99339.78;;;30.28;44.16
41515;BME280;27247;48.020;16.720;2023-07-20T13:32:44;99343.44;;;30.55;44.50
41515;BME280;27247;48.020;16.720;2023-07-20T13:36:55;99352.31;;;30.91;44.43
41515;BME280;27247;48.020;16.720;2023-07-20T13:41:06;99347.94;;;31.07;42.46
41515;BME280;27247;48.020;16.720;2023-07-20T13:45:16;99340.38;;;31.22;42.63
41515;BME280;27247;48.020;16.720;2023-07-20T13:49:27;99351.59;;;31.34;42.41
41515;BME280;27247;48.020;16.720;2023-07-20T13:53:38;99353.38;;;31.38;42.29
41515;BME280;27247;48.020;16.720;2023-07-20T13:57:48;99346.88;;;31.26;43.30
41515;BME280;27247;48.020;16.720;2023-07-20T14:01:58;99360.91;;;30.41;44.11
41515;BME280;27247;48.020;16.720;2023-07-20T14:06:09;99351.16;;;30.84;44.45
41515;BME280;27247;48.020;16.720;2023-07-20T14:10:19;99347.56;;;30.66;44.51
41515;BME280;27247;48.020;16.720;2023-07-20T14:14:30;99344.00;;;30.74;43.75
41515;BME280;27247;48.020;16.720;2023-07-20T14:18:40;99342.84;;;30.66;43.64
41515;BME280;27247;48.020;16.720;2023-07-20T14:22:51;99344.25;;;30.55;44.25
41515;BME280;27247;48.020;16.720;2023-07-20T14:27:01;99326.94;;;30.63;43.39
41515;BME280;27247;48.020;16.720;2023-07-20T14:31:12;99334.88;;;30.65;43.43
41515;BME280;27247;48.020;16.720;2023-07-20T14:35:22;99340.69;;;30.55;43.36
41515;BME280;27247;48.020;16.720;2023-07-20T14:39:33;99340.91;;;30.75;43.59
41515;BME280;27247;48.020;16.720;2023-07-20T14:43:43;99339.28;;;30.26;43.23
41515;BME280;27247;48.020;16.720;2023-07-20T14:47:54;99345.50;;;30.09;46.73
41515;BME280;27247;48.020;16.720;2023-07-20T14:52:04;99350.91;;;29.70;47.99
41515;BME280;27247;48.020;16.720;2023-07-20T14:56:15;99338.84;;;29.07;48.13
41515;BME280;27247;48.020;16.720;2023-07-20T15:00:25;99345.81;;;28.91;49.43
41515;BME280;27247;48.020;16.720;2023-07-20T15:04:35;99340.22;;;28.55;49.94
41515;BME280;27247;48.020;16.720;2023-07-20T15:08:46;99333.31;;;28.44;50.55
41515;BME280;27247;48.020;16.720;2023-07-20T15:12:56;99335.84;;;28.26;50.01
41515;BME280;27247;48.020;16.720;2023-07-20T15:17:07;99339.72;;;28.25;50.26
41515;BME280;27247;48.020;16.720;2023-07-20T15:21:17;99333.22;;;28.35;49.69
41515;BME280;27247;48.020;16.720;2023-07-20T15:25:28;99327.16;;;28.19;49.87
41515;BME280;27247;48.020;16.720;2023-07-20T15:29:39;99329.34;;;28.04;49.86
41515;BME280;27247;48.020;16.720;2023-07-20T15:33:49;99323.34;;;28.02;50.70
41515;BME280;27247;48.020;16.720;2023-07-20T15:37:59;99326.97;;;27.83;51.37
41515;BME280;27247;48.020;16.720;2023-07-20T15:42:10;99327.31;;;27.95;51.33
41515;BME280;27247;48.020;16.720;2023-07-20T15:50:30;99321.66;;;28.19;50.28
41515;BME280;27247;48.020;16.720;2023-07-20T15:54:41;99310.72;;;28.33;51.05
41515;BME280;27247;48.020;16.720;2023-07-20T15:58:51;99310.09;;;28.36;50.46
41515;BME280;27247;48.020;16.720;2023-07-20T16:03:01;99315.09;;;28.34;50.11
41515;BME280;27247;48.020;16.720;2023-07-20T16:07:12;99311.63;;;28.42;51.06
41515;BME280;27247;48.020;16.720;2023-07-20T16:11:22;99316.59;;;28.54;48.88
41515;BME280;27247;48.020;16.720;2023-07-20T16:15:33;99319.56;;;28.57;49.59
41515;BME280;27247;48.020;16.720;2023-07-20T16:19:43;99316.19;;;28.60;48.60
41515;BME280;27247;48.020;16.720;2023-07-20T16:23:54;99321.97;;;28.73;48.90
41515;BME280;27247;48.020;16.720;2023-07-20T16:28:05;99319.00;;;28.83;47.46
41515;BME280;27247;48.020;16.720;2023-07-20T16:32:16;99314.53;;;28.87;46.51
41515;BME280;27247;48.020;16.720;2023-07-20T16:36:26;99315.44;;;28.96;46.28
41515;BME280;27247;48.020;16.720;2023-07-20T16:40:37;99317.38;;;28.96;47.28
41515;BME280;27247;48.020;16.720;2023-07-20T16:44:50;99318.63;;;28.89;46.78
41515;BME280;27247;48.020;16.720;2023-07-20T16:49:00;99320.66;;;28.84;46.06
41515;BME280;27247;48.020;16.720;2023-07-20T16:53:19;99325.97;;;28.67;46.54
41515;BME280;27247;48.020;16.720;2023-07-20T16:57:29;99324.44;;;28.60;47.03
41515;BME280;27247;48.020;16.720;2023-07-20T17:01:39;99321.69;;;28.47;47.05
41515;BME280;27247;48.020;16.720;2023-07-20T17:05:50;99322.81;;;28.46;47.87
41515;BME280;27247;48.020;16.720;2023-07-20T17:10:00;99325.47;;;28.37;47.57
41515;BME280;27247;48.020;16.720;2023-07-20T17:14:11;99317.31;;;28.32;47.38
41515;BME280;27247;48.020;16.720;2023-07-20T17:18:22;99325.16;;;28.25;47.90
41515;BME280;27247;48.020;16.720;2023-07-20T17:22:32;99336.94;;;28.12;48.79
41515;BME280;27247;48.020;16.720;2023-07-20T17:26:43;99327.06;;;28.11;49.18
41515;BME280;27247;48.020;16.720;2023-07-20T17:30:57;99331.47;;;27.93;48.87
41515;BME280;27247;48.020;16.720;2023-07-20T17:35:09;99337.75;;;27.80;48.81
41515;BME280;27247;48.020;16.720;2023-07-20T17:39:23;99338.66;;;27.75;49.94
41515;BME280;27247;48.020;16.720;2023-07-20T17:43:33;99341.06;;;27.63;49.81
41515;BME280;27247;48.020;16.720;2023-07-20T17:47:44;99337.81;;;27.42;49.65
41515;BME280;27247;48.020;16.720;2023-07-20T17:51:54;99338.94;;;27.22;50.21
41515;BME280;27247;48.020;16.720;2023-07-20T17:56:05;99351.75;;;27.08;50.55
41515;BME280;27247;48.020;16.720;2023-07-20T18:00:16;99347.09;;;26.85;51.81
41515;BME280;27247;48.020;16.720;2023-07-20T18:04:27;99346.56;;;26.83;52.05
41515;BME280;27247;48.020;16.720;2023-07-20T18:08:38;99341.81;;;26.69;51.90
41515;BME280;27247;48.020;16.720;2023-07-20T18:12:51;99351.50;;;26.62;51.54
41515;BME280;27247;48.020;16.720;2023-07-20T18:17:02;99344.72;;;26.54;51.87
41515;BME280;27247;48.020;16.720;2023-07-20T18:21:15;99347.38;;;26.40;52.37
41515;BME280;27247;48.020;16.720;2023-07-20T18:25:26;99350.25;;;26.25;53.30
41515;BME280;27247;48.020;16.720;2023-07-20T18:29:37;99355.06;;;26.09;53.87
41515;BME280;27247;48.020;16.720;2023-07-20T18:33:48;99355.28;;;25.84;55.33
41515;BME280;27247;48.020;16.720;2023-07-20T18:38:00;99361.13;;;25.72;55.92
41515;BME280;27247;48.020;16.720;2023-07-20T18:42:10;99360.31;;;25.33;57.21
41515;BME280;27247;48.020;16.720;2023-07-20T18:46:21;99366.63;;;25.28;57.27
41515;BME280;27247;48.020;16.720;2023-07-20T18:50:33;99361.22;;;25.18;58.10
41515;BME280;27247;48.020;16.720;2023-07-20T18:54:44;99364.31;;;25.06;58.70
41515;BME280;27247;48.020;16.720;2023-07-20T18:58:54;99380.16;;;24.94;59.50
41515;BME280;27247;48.020;16.720;2023-07-20T19:03:05;99380.25;;;24.79;60.86
41515;BME280;27247;48.020;16.720;2023-07-20T19:07:15;99386.88;;;24.58;61.19
41515;BME280;27247;48.020;16.720;2023-07-20T19:11:26;99393.47;;;24.51;60.82
41515;BME280;27247;48.020;16.720;2023-07-20T19:15:37;99401.44;;;24.38;62.21
41515;BME280;27247;48.020;16.720;2023-07-20T19:19:48;99399.81;;;24.11;59.13
41515;BME280;27247;48.020;16.720;2023-07-20T19:23:59;99398.16;;;23.70;59.43
41515;BME280;27247;48.020;16.720;2023-07-20T19:28:09;99404.69;;;23.59;60.19
41515;BME280;27247;48.020;16.720;2023-07-20T19:32:20;99414.97;;;23.26;60.84
41515;BME280;27247;48.020;16.720;2023-07-20T19:36:33;99414.69;;;23.22;61.20
41515;BME280;27247;48.020;16.720;2023-07-20T19:40:45;99418.44;;;22.96;61.71
41515;BME280;27247;48.020;16.720;2023-07-20T19:44:56;99426.72;;;22.74;62.30
41515;BME280;27247;48.020;16.720;2023-07-20T19:49:07;99422.31;;;22.63;63.67
41515;BME280;27247;48.020;16.720;2023-07-20T19:53:18;99420.03;;;22.45;64.61
41515;BME280;27247;48.020;16.720;2023-07-20T19:57:28;99417.50;;;22.33;64.76
41515;BME280;27247;48.020;16.720;2023-07-20T20:01:39;99425.78;;;22.11;65.46
41515;BME280;27247;48.020;16.720;2023-07-20T20:05:50;99424.03;;;22.00;66.47
41515;BME280;27247;48.020;16.720;2023-07-20T20:10:02;99431.13;;;22.01;69.40
41515;BME280;27247;48.020;16.720;2023-07-20T20:14:15;99433.78;;;21.91;70.25
41515;BME280;27247;48.020;16.720;2023-07-20T20:18:26;99441.50;;;21.77;70.43
41515;BME280;27247;48.020;16.720;2023-07-20T20:22:40;99440.94;;;21.75;71.27
41515;BME280;27247;48.020;16.720;2023-07-20T20:26:51;99443.38;;;21.72;71.50
41515;BME280;27247;48.020;16.720;2023-07-20T20:31:05;99438.75;;;21.72;69.26
41515;BME280;27247;48.020;16.720;2023-07-20T20:35:16;99439.72;;;21.61;70.38
41515;BME280;27247;48.020;16.720;2023-07-20T20:39:27;99434.53;;;21.59;71.10
41515;BME280;27247;48.020;16.720;2023-07-20T20:43:38;99442.56;;;21.44;71.68
41515;BME280;27247;48.020;16.720;2023-07-20T20:47:48;99444.19;;;21.45;69.73
41515;BME280;27247;48.020;16.720;2023-07-20T20:52:00;99445.09;;;21.29;67.50
41515;BME280;27247;48.020;16.720;2023-07-20T20:56:10;99449.16;;;20.83;69.91
41515;BME280;27247;48.020;16.720;2023-07-20T21:00:22;99445.84;;;20.42;71.56
41515;BME280;27247;48.020;16.720;2023-07-20T21:04:33;99449.72;;;20.13;71.58
41515;BME280;27247;48.020;16.720;2023-07-20T21:08:43;99464.59;;;19.93;73.23
41515;BME280;27247;48.020;16.720;2023-07-20T21:12:54;99473.69;;;19.87;73.47
41515;BME280;27247;48.020;16.720;2023-07-20T21:17:04;99468.09;;;19.77;72.44
41515;BME280;27247;48.020;16.720;2023-07-20T21:21:14;99476.56;;;19.52;72.61
41515;BME280;27247;48.020;16.720;2023-07-20T21:25:25;99482.31;;;19.56;72.88
41515;BME280;27247;48.020;16.720;2023-07-20T21:29:35;99481.03;;;19.58;72.99
41515;BME280;27247;48.020;16.720;2023-07-20T21:33:46;99478.25;;;19.70;72.58
41515;BME280;27247;48.020;16.720;2023-07-20T21:37:56;99480.69;;;19.83;72.79
41515;BME280;27247;48.020;16.720;2023-07-20T21:42:06;99488.66;;;19.90;74.35
41515;BME280;27247;48.020;16.720;2023-07-20T21:46:17;99491.88;;;20.03;73.96
41515;BME280;27247;48.020;16.720;2023-07-20T21:50:27;99485.06;;;20.01;75.29
41515;BME280;27247;48.020;16.720;2023-07-20T21:54:37;99492.47;;;20.05;75.71
41515;BME280;27247;48.020;16.720;2023-07-20T21:58:48;99489.97;;;19.87;77.13
41515;BME280;27247;48.020;16.720;2023-07-20T22:02:58;99484.72;;;19.81;77.70
41515;BME280;27247;48.020;16.720;2023-07-20T22:07:08;99494.81;;;19.85;77.84
41515;BME280;27247;48.020;16.720;2023-07-20T22:11:23;99490.94;;;19.81;77.80
41515;BME280;27247;48.020;16.720;2023-07-20T22:15:34;99497.03;;;19.60;76.97